Time;durP1;ratioP1;P1;durP2;ratioP2;P2;SDS_P1;SDS_P2;PMS_P1;PMS_P2;Temp;Humidity;BMP_temperature;BMP_pressure;BME280_temperature;BME280_humidity;BME280_pressure;Samples;Min_cycle;Max_cycle;Signal;HPM_P1;HPM_P2
2022/07/30 00:00:42;;;;;;;6.50;3.20;;;;;;;20.52;69.00;101629.00;6166778;28;20238;-68
2022/07/30 00:04:03;;;;;;;8.05;2.95;;;;;;;20.56;69.31;101627.59;6161244;28;20225;-68
2022/07/30 00:07:26;;;;;;;2.92;2.63;;;;;;;20.55;69.57;101629.50;6166554;28;20705;-68
2022/07/30 00:10:47;;;;;;;2.65;2.40;;;;;;;20.50;69.78;101625.59;6165788;28;20230;-67
2022/07/30 00:14:08;;;;;;;4.75;3.13;;;;;;;20.52;69.52;101627.13;6166623;28;20650;-68
2022/07/30 00:17:29;;;;;;;5.60;3.13;;;;;;;20.42;69.48;101622.94;6165061;28;20238;-67
2022/07/30 00:20:50;;;;;;;4.40;3.03;;;;;;;20.39;70.54;101617.78;6157443;28;20234;-67
2022/07/30 00:24:13;;;;;;;3.78;2.90;;;;;;;20.46;69.75;101614.13;6166098;28;20631;-67
2022/07/30 00:27:34;;;;;;;2.80;2.15;;;;;;;20.34;70.48;101617.50;6171397;28;20250;-68
2022/07/30 00:30:55;;;;;;;4.00;2.95;;;;;;;20.37;70.20;101611.66;6164890;28;20237;-68
2022/07/30 00:34:16;;;;;;;7.15;3.53;;;;;;;20.33;70.42;101607.56;6164217;28;20242;-68
2022/07/30 00:37:38;;;;;;;4.05;2.90;;;;;;;20.37;70.61;101617.13;6167199;28;20241;-68
2022/07/30 00:41:01;;;;;;;5.65;3.30;;;;;;;20.34;70.47;101617.50;6173474;28;20234;-67
2022/07/30 00:44:22;;;;;;;4.68;2.63;;;;;;;20.29;70.16;101620.78;6169221;28;21202;-67
2022/07/30 00:47:43;;;;;;;5.65;2.78;;;;;;;20.25;70.70;101618.59;6175620;28;20233;-67
2022/07/30 00:51:04;;;;;;;6.32;3.40;;;;;;;20.25;70.99;101608.47;6170981;28;20257;-67
2022/07/30 00:54:25;;;;;;;4.15;2.72;;;;;;;20.24;71.01;101611.38;6173614;28;20722;-67
2022/07/30 00:57:47;;;;;;;3.17;2.58;;;;;;;20.17;71.06;101605.75;6174517;28;20237;-67
2022/07/30 01:01:09;;;;;;;3.78;2.92;;;;;;;20.17;71.70;101608.47;6164479;28;20400;-67
2022/07/30 01:04:30;;;;;;;4.38;2.50;;;;;;;20.16;71.61;101606.78;6169093;28;20557;-67
2022/07/30 01:07:51;;;;;;;4.43;3.17;;;;;;;20.07;71.70;101599.66;6167318;28;20238;-66
2022/07/30 01:11:12;;;;;;;5.22;3.13;;;;;;;20.13;71.14;101592.63;6172864;28;20226;-67
2022/07/30 01:14:38;;;;;;;4.38;2.92;;;;;;;20.14;71.37;101594.31;6177692;28;20229;-68
2022/07/30 01:18:02;;;;;;;5.72;2.88;;;;;;;20.05;71.73;101596.22;6169898;28;20257;-68
2022/07/30 01:21:32;;;;;;;5.65;3.50;;;;;;;20.12;71.82;101594.50;6169894;28;20226;-68
2022/07/30 01:24:58;;;;;;;3.40;2.58;;;;;;;20.07;71.72;101594.16;6174140;28;20607;-67
2022/07/30 01:28:23;;;;;;;5.28;2.60;;;;;;;20.07;71.62;101583.22;6151295;28;20237;-68
2022/07/30 01:31:46;;;;;;;4.07;3.28;;;;;;;20.07;71.72;101585.94;6167877;28;20237;-67
2022/07/30 01:35:09;;;;;;;4.53;3.00;;;;;;;20.08;71.68;101582.19;6164870;28;20226;-66
2022/07/30 01:38:32;;;;;;;5.43;3.35;;;;;;;20.10;71.53;101582.88;6155323;28;20234;-66
2022/07/30 01:41:55;;;;;;;4.78;3.35;;;;;;;20.13;71.33;101579.75;6170708;28;20883;-68
2022/07/30 01:45:19;;;;;;;7.22;2.92;;;;;;;20.00;71.58;101581.41;6153765;28;20242;-67
2022/07/30 01:48:43;;;;;;;3.78;2.70;;;;;;;20.04;71.74;101575.38;6171016;28;20242;-68
2022/07/30 01:52:07;;;;;;;4.47;2.30;;;;;;;20.07;71.41;101577.75;6157196;28;20237;-68
2022/07/30 01:55:32;;;;;;;3.97;2.75;;;;;;;20.02;71.18;101573.84;6172877;28;20618;-68
2022/07/30 01:58:55;;;;;;;3.50;2.60;;;;;;;19.97;71.62;101579.00;6170665;28;20245;-67
2022/07/30 02:02:20;;;;;;;5.82;2.45;;;;;;;19.82;71.99;101579.78;6169282;28;20241;-67
2022/07/30 02:05:50;;;;;;;7.70;4.10;;;;;;;19.82;72.35;101571.56;6168815;28;20234;-68
2022/07/30 02:09:15;;;;;;;9.10;3.05;;;;;;;19.83;72.10;101578.75;6161935;28;20276;-68
2022/07/30 02:12:40;;;;;;;3.35;2.42;;;;;;;19.83;71.65;101572.41;6170484;28;20599;-67
2022/07/30 02:16:09;;;;;;;3.17;2.88;;;;;;;19.82;72.53;101571.56;6167548;28;20309;-67
2022/07/30 02:19:36;;;;;;;6.40;3.40;;;;;;;19.84;72.13;101571.38;6167081;28;20241;-68
2022/07/30 02:23:05;;;;;;;4.55;2.80;;;;;;;19.74;72.45;101576.22;6169862;28;21029;-68
2022/07/30 02:26:27;;;;;;;5.18;4.00;;;;;;;19.82;72.02;101577.03;6173491;28;20229;-67
2022/07/30 02:29:50;;;;;;;3.63;3.00;;;;;;;19.76;72.44;101572.28;6177643;28;20226;-67
2022/07/30 02:33:14;;;;;;;3.45;3.15;;;;;;;19.82;71.97;101576.16;6175748;28;20217;-67
2022/07/30 02:36:38;;;;;;;4.18;3.22;;;;;;;19.77;71.92;101571.25;6173042;28;20549;-67
2022/07/30 02:40:00;;;;;;;3.85;2.70;;;;;;;19.84;72.26;101574.09;6172800;28;20269;-67
2022/07/30 02:43:23;;;;;;;6.07;2.90;;;;;;;19.92;71.72;101582.31;6171689;28;20584;-67
2022/07/30 02:46:46;;;;;;;5.88;3.15;;;;;;;19.92;71.54;101577.66;6171784;28;20234;-67
2022/07/30 02:50:32;;;;;;;6.10;3.47;;;;;;;19.93;71.39;101581.25;6174491;28;20254;-67
2022/07/30 02:53:58;;;;;;;4.53;3.47;;;;;;;19.90;71.74;101585.19;6172805;28;20669;-68
2022/07/30 02:57:21;;;;;;;9.45;3.55;;;;;;;19.90;71.45;101582.47;6174053;28;20238;-67
2022/07/30 03:00:43;;;;;;;3.25;2.30;;;;;;;19.88;70.93;101584.53;6162759;28;20225;-67
2022/07/30 03:04:05;;;;;;;5.18;3.42;;;;;;;19.84;71.33;101588.66;6173331;28;20320;-67
2022/07/30 03:07:28;;;;;;;3.42;2.88;;;;;;;19.83;71.61;101577.91;6159646;28;20233;-67
2022/07/30 03:10:53;;;;;;;5.95;3.17;;;;;;;19.76;72.02;101575.00;6170858;28;20258;-67
2022/07/30 03:14:14;;;;;;;7.20;4.50;;;;;;;19.85;71.45;101571.22;6158486;28;20246;-67
2022/07/30 03:17:39;;;;;;;5.72;3.10;;;;;;;19.82;71.27;101570.69;6172868;28;20585;-67
2022/07/30 03:21:01;;;;;;;4.68;2.63;;;;;;;19.77;71.12;101571.25;6170877;28;20507;-68
2022/07/30 03:24:24;;;;;;;5.75;2.28;;;;;;;19.75;71.52;101564.25;6171499;28;25060;-68
2022/07/30 03:27:48;;;;;;;6.40;2.80;;;;;;;19.75;71.09;101570.59;6170578;28;20230;-67
2022/07/30 03:31:10;;;;;;;5.78;2.83;;;;;;;19.70;71.72;101561.19;6163726;28;20240;-67
2022/07/30 03:34:33;;;;;;;4.78;3.13;;;;;;;19.74;71.16;101570.75;6161048;28;20242;-67
2022/07/30 03:37:55;;;;;;;3.47;2.70;;;;;;;19.64;71.74;101567.38;6165056;28;20242;-67
2022/07/30 03:41:18;;;;;;;8.55;3.50;;;;;;;19.69;71.74;101574.00;6166471;28;20480;-67
2022/07/30 03:44:44;;;;;;;6.53;4.00;;;;;;;19.73;71.58;101571.78;6142286;28;20687;-68
2022/07/30 03:48:08;;;;;;;4.03;3.67;;;;;;;19.77;70.93;101576.75;6167505;28;20599;-68
2022/07/30 03:51:32;;;;;;;4.95;2.80;;;;;;;19.70;70.88;101567.53;6168066;28;21370;-68
2022/07/30 03:54:53;;;;;;;5.20;4.70;;;;;;;19.63;71.26;101573.91;6166190;28;20233;-68
2022/07/30 03:58:33;;;;;;;4.85;3.25;;;;;;;19.62;71.26;101564.84;6166643;28;20324;-68
2022/07/30 04:02:00;;;;;;;3.95;3.55;;;;;;;19.62;71.60;101558.50;6162055;28;20238;-68
2022/07/30 04:05:39;;;;;;;4.00;3.22;;;;;;;19.56;71.68;101568.28;6167929;28;22952;-69
2022/07/30 04:09:00;;;;;;;4.07;3.00;;;;;;;19.52;71.39;101569.66;6166867;28;20229;-67
2022/07/30 04:12:21;;;;;;;6.70;3.17;;;;;;;19.57;71.68;101564.50;6164814;28;20641;-66
2022/07/30 04:15:49;;;;;;;5.88;3.20;;;;;;;19.61;71.16;101556.81;6171507;28;20746;-68
2022/07/30 04:19:25;;;;;;;4.88;3.75;;;;;;;19.54;71.29;101570.34;6167288;28;20261;-68
2022/07/30 04:22:49;;;;;;;4.85;3.22;;;;;;;19.58;71.15;101566.22;6168974;28;20262;-68
2022/07/30 04:26:11;;;;;;;3.42;2.60;;;;;;;19.55;70.80;101568.44;6169253;28;20512;-66
2022/07/30 04:29:32;;;;;;;5.38;2.65;;;;;;;19.45;70.82;101571.38;6169748;28;21444;-67
2022/07/30 04:32:53;;;;;;;2.78;2.58;;;;;;;19.56;70.97;101573.75;6169897;28;20349;-67
2022/07/30 04:36:35;;;;;;;4.15;2.33;;;;;;;19.52;70.95;101577.88;6169350;28;20234;-67
2022/07/30 04:39:57;;;;;;;3.80;3.08;;;;;;;19.41;71.20;101580.13;6165994;28;20319;-68
2022/07/30 04:43:18;;;;;;;4.80;2.53;;;;;;;19.53;70.82;101581.44;6173300;28;20237;-66
2022/07/30 04:46:39;;;;;;;5.25;3.17;;;;;;;19.45;70.59;101585.06;6154759;28;20355;-67
2022/07/30 04:50:01;;;;;;;10.63;7.10;;;;;;;19.46;70.97;101591.41;6178273;28;20352;-68
2022/07/30 04:53:25;;;;;;;18.02;11.52;;;;;;;19.44;70.69;101591.56;6176354;28;20325;-68
2022/07/30 04:56:50;;;;;;;20.83;13.10;;;;;;;19.50;70.78;101587.28;6175623;28;21545;-68
2022/07/30 05:00:12;;;;;;;13.30;8.02;;;;;;;19.54;70.59;101594.09;6164314;28;20238;-68
2022/07/30 05:03:36;;;;;;;5.72;3.97;;;;;;;19.52;70.48;101591.56;6166956;28;20567;-67
2022/07/30 05:06:57;;;;;;;4.10;3.50;;;;;;;19.44;70.18;101588.81;6156870;28;20234;-68
2022/07/30 05:10:19;;;;;;;6.70;3.60;;;;;;;19.44;70.71;101586.09;6168547;28;20366;-67
2022/07/30 05:13:42;;;;;;;6.53;4.32;;;;;;;19.41;70.08;101588.31;6171319;28;20313;-68
2022/07/30 05:17:04;;;;;;;3.90;2.67;;;;;;;19.48;70.11;101592.06;6152616;28;20253;-67
2022/07/30 05:20:26;;;;;;;2.47;2.00;;;;;;;19.46;70.21;101597.69;6168715;28;20234;-68
2022/07/30 05:24:01;;;;;;;2.78;2.47;;;;;;;19.48;70.21;101592.94;6167675;28;20229;-68
2022/07/30 05:27:30;;;;;;;3.15;2.83;;;;;;;19.48;70.65;101597.53;6171452;28;20239;-68
2022/07/30 05:30:51;;;;;;;2.90;2.60;;;;;;;19.47;70.42;101604.88;6165478;28;20229;-67
2022/07/30 05:34:13;;;;;;;3.22;2.17;;;;;;;19.45;70.11;101593.28;6169026;28;20233;-67
2022/07/30 05:37:39;;;;;;;3.30;2.35;;;;;;;19.44;70.41;101596.19;6171921;28;20226;-67
2022/07/30 05:41:00;;;;;;;6.65;2.70;;;;;;;19.52;69.84;101605.22;6167133;28;20241;-68
2022/07/30 05:44:52;;;;;;;2.88;1.88;;;;;;;19.48;69.72;101598.41;6165873;28;20320;-68
2022/07/30 05:48:12;;;;;;;2.75;2.25;;;;;;;19.57;69.75;101596.47;6164508;28;22231;-68
2022/07/30 05:51:34;;;;;;;2.80;2.13;;;;;;;19.48;70.14;101603.00;6164949;28;20308;-67
2022/07/30 05:54:54;;;;;;;4.55;2.25;;;;;;;19.56;69.88;101602.97;6156849;28;20321;-67
2022/07/30 05:58:38;;;;;;;2.70;2.30;;;;;;;19.61;69.40;101606.06;6169488;28;20256;-68
2022/07/30 06:02:01;;;;;;;4.35;3.22;;;;;;;19.57;69.51;101608.28;6166726;28;20225;-68
2022/07/30 06:05:31;;;;;;;4.50;3.45;;;;;;;19.68;70.11;101601.56;6160200;28;20233;-67
2022/07/30 06:08:55;;;;;;;3.28;2.25;;;;;;;19.76;69.11;101607.00;6162386;28;20233;-68
2022/07/30 06:12:16;;;;;;;4.88;2.25;;;;;;;19.74;69.06;101611.78;6163913;28;20234;-67
2022/07/30 06:15:37;;;;;;;3.20;2.90;;;;;;;19.76;68.88;101607.00;6143469;28;20753;-65
2022/07/30 06:19:00;;;;;;;5.28;2.90;;;;;;;19.70;68.33;101611.31;6155958;28;20253;-67
2022/07/30 06:22:32;;;;;;;3.67;2.95;;;;;;;19.71;68.67;101602.03;6170033;28;20257;-66
2022/07/30 06:25:59;;;;;;;4.65;3.10;;;;;;;19.82;68.14;101614.50;6156427;28;20229;-66
2022/07/30 06:29:20;;;;;;;6.22;3.13;;;;;;;19.90;67.59;101607.09;6170086;28;20229;-65
2022/07/30 06:32:44;;;;;;;4.05;2.92;;;;;;;20.03;67.94;101616.59;6169493;28;20314;-66
2022/07/30 06:36:07;;;;;;;5.20;3.25;;;;;;;20.20;67.76;101616.38;6169657;28;20227;-65
2022/07/30 06:39:40;;;;;;;5.63;2.72;;;;;;;20.30;67.16;101619.72;6151697;28;20230;-66
2022/07/30 06:43:13;;;;;;;5.95;3.28;;;;;;;20.29;66.74;101620.78;6168561;28;20861;-67
2022/07/30 06:46:44;;;;;;;3.63;2.63;;;;;;;20.26;66.61;101623.00;6164209;28;20642;-67
2022/07/30 06:50:07;;;;;;;5.28;3.85;;;;;;;20.36;66.44;101620.91;6154103;28;20238;-66
2022/07/30 06:53:30;;;;;;;3.17;2.42;;;;;;;20.40;66.13;101616.78;6159992;28;20320;-66
2022/07/30 06:57:14;;;;;;;4.25;3.90;;;;;;;20.32;66.20;101620.41;6163853;28;20321;-67
2022/07/30 07:00:36;;;;;;;5.68;4.68;;;;;;;20.39;66.98;101620.53;6162001;28;22273;-65
2022/07/30 07:04:03;;;;;;;3.50;3.00;;;;;;;20.51;65.05;101625.41;6169095;28;20226;-67
2022/07/30 07:07:24;;;;;;;4.38;3.42;;;;;;;20.62;65.37;101621.41;6157033;28;20226;-66
2022/07/30 07:10:47;;;;;;;4.68;2.20;;;;;;;20.45;65.41;101626.16;6172623;28;20226;-65
2022/07/30 07:14:16;;;;;;;3.30;2.38;;;;;;;20.53;64.98;101620.59;6168098;28;20242;-65
2022/07/30 07:17:39;;;;;;;4.10;3.72;;;;;;;20.56;65.36;101625.72;6167358;28;20260;-66
2022/07/30 07:21:00;;;;;;;3.30;2.85;;;;;;;20.53;65.22;101626.06;6176543;28;20246;-67
2022/07/30 07:24:23;;;;;;;5.72;3.60;;;;;;;20.92;64.42;101616.88;6167876;28;20234;-66
2022/07/30 07:28:07;;;;;;;3.13;2.80;;;;;;;20.60;64.40;101610.63;6147371;28;20225;-65
2022/07/30 07:31:28;;;;;;;3.45;2.90;;;;;;;20.25;65.48;101619.44;6146566;28;20238;-66
2022/07/30 07:34:49;;;;;;;5.47;3.40;;;;;;;20.81;64.30;101618.16;6162017;28;20237;-67
2022/07/30 07:38:10;;;;;;;7.38;3.45;;;;;;;20.96;63.93;101620.94;6165226;28;20217;-67
2022/07/30 07:41:32;;;;;;;6.18;4.03;;;;;;;21.43;63.13;101605.91;6168436;28;20226;-65
2022/07/30 07:44:54;;;;;;;4.10;3.20;;;;;;;21.68;62.61;101609.19;6163813;28;20230;-66
2022/07/30 07:48:15;;;;;;;4.88;2.85;;;;;;;21.42;62.17;101608.84;6167438;28;20238;-65
2022/07/30 07:51:51;;;;;;;9.10;3.75;;;;;;;21.02;63.26;101610.13;6164686;28;20530;-66
2022/07/30 07:55:14;;;;;;;6.18;4.13;;;;;;;21.47;62.34;101612.72;6163120;28;20234;-67
2022/07/30 07:58:36;;;;;;;4.85;3.30;;;;;;;21.74;61.26;101616.66;6172419;28;20237;-66
2022/07/30 08:01:59;;;;;;;7.03;3.42;;;;;;;21.29;61.53;101628.69;6165416;28;20237;-66
2022/07/30 08:05:52;;;;;;;6.18;3.92;;;;;;;20.86;62.58;101629.41;6174986;28;20328;-67
2022/07/30 08:09:32;;;;;;;5.38;3.08;;;;;;;21.55;60.65;101622.72;6179334;28;20238;-66
2022/07/30 08:13:05;;;;;;;5.28;2.83;;;;;;;21.85;59.62;101618.97;6182409;28;20229;-66
2022/07/30 08:16:29;;;;;;;5.82;3.47;;;;;;;22.61;58.16;101620.31;6181494;28;20675;-66
2022/07/30 08:20:11;;;;;;;8.52;3.25;;;;;;;23.01;55.88;101625.09;6178058;28;20237;-66
2022/07/30 08:23:32;;;;;;;4.97;2.90;;;;;;;22.77;56.72;101618.16;6168787;28;20328;-66
2022/07/30 08:26:54;;;;;;;4.88;2.80;;;;;;;22.38;56.56;101620.47;6167483;28;20320;-66
2022/07/30 08:30:15;;;;;;;5.40;3.13;;;;;;;22.90;55.35;101621.03;6165571;28;20233;-66
2022/07/30 08:33:36;;;;;;;3.17;2.80;;;;;;;22.66;56.49;101615.06;6177075;28;20229;-66
2022/07/30 08:36:59;;;;;;;7.50;3.50;;;;;;;22.60;55.51;101629.59;6164391;28;20237;-65
2022/07/30 08:40:21;;;;;;;4.35;3.35;;;;;;;23.09;55.22;101633.25;6181654;28;20233;-67
2022/07/30 08:43:50;;;;;;;5.28;3.10;;;;;;;23.13;54.54;101634.53;6185268;28;20608;-66
2022/07/30 08:47:16;;;;;;;4.88;3.40;;;;;;;22.90;55.88;101634.78;6186220;28;20238;-67
2022/07/30 08:50:58;;;;;;;4.50;3.13;;;;;;;23.36;55.46;101634.31;6177791;28;20249;-67
2022/07/30 08:54:29;;;;;;;4.25;3.28;;;;;;;22.32;57.44;101634.97;6181310;28;20651;-67
2022/07/30 08:57:51;;;;;;;4.07;3.17;;;;;;;22.65;56.08;101629.88;6168542;28;20241;-66
2022/07/30 09:01:12;;;;;;;4.03;2.88;;;;;;;23.27;54.99;101641.84;6184624;28;20324;-66
2022/07/30 09:04:33;;;;;;;4.18;3.22;;;;;;;23.47;53.42;101642.00;6170331;28;20218;-67
2022/07/30 09:07:54;;;;;;;6.28;3.60;;;;;;;22.37;57.01;101640.72;6173631;28;20234;-66
2022/07/30 09:11:18;;;;;;;3.40;2.78;;;;;;;22.58;56.81;101645.41;6140788;28;20221;-66
2022/07/30 09:14:39;;;;;;;5.10;2.75;;;;;;;22.91;54.72;101644.72;6152381;28;20227;-65
2022/07/30 09:18:02;;;;;;;4.35;3.25;;;;;;;23.15;54.60;101656.34;6167871;28;20245;-66
2022/07/30 09:21:27;;;;;;;4.28;3.33;;;;;;;22.92;54.84;101645.56;6176116;28;20304;-66
2022/07/30 09:25:03;;;;;;;5.20;3.65;;;;;;;23.99;54.98;101650.56;6168676;28;20245;-67
2022/07/30 09:32:47;;;;;;;5.10;3.60;;;;;;;24.39;53.55;101654.34;6279049;27;21030;-65
2022/07/30 09:36:31;;;;;;;3.88;3.47;;;;;;;24.53;53.10;101656.94;6265272;28;20758;-67
2022/07/30 09:40:27;;;;;;;7.13;3.17;;;;;;;24.37;53.85;101659.22;6278042;28;20315;-66
2022/07/30 09:44:28;;;;;;;4.05;2.90;;;;;;;24.14;54.58;101654.06;6284493;28;20246;-66
2022/07/30 09:47:52;;;;;;;3.95;3.20;;;;;;;24.78;54.14;101657.25;6276235;28;20266;-66
2022/07/30 09:51:13;;;;;;;6.90;3.17;;;;;;;24.10;54.90;101668.44;6259553;28;20227;-65
2022/07/30 09:54:46;;;;;;;7.85;3.22;;;;;;;24.37;54.78;101664.75;6268952;28;20506;-65
2022/07/30 09:58:08;;;;;;;3.30;2.90;;;;;;;23.93;55.94;101670.66;6309105;28;20303;-67
2022/07/30 10:01:49;;;;;;;5.53;3.72;;;;;;;23.49;57.50;101662.78;6298493;28;20225;-66
2022/07/30 10:05:30;;;;;;;6.13;3.55;;;;;;;23.66;58.18;101666.91;6272469;28;20508;-65
2022/07/30 10:08:52;;;;;;;5.68;3.58;;;;;;;24.42;57.24;101659.47;6268906;28;20768;-66
2022/07/30 10:12:14;;;;;;;5.88;3.47;;;;;;;24.37;55.08;101670.25;6258332;28;20235;-66
2022/07/30 10:15:41;;;;;;;6.63;3.20;;;;;;;24.32;55.56;101664.53;6272171;27;20696;-66
2022/07/30 10:19:03;;;;;;;5.38;3.47;;;;;;;25.05;54.06;101667.28;6258742;28;20278;-66
2022/07/30 10:22:44;;;;;;;4.55;3.45;;;;;;;24.92;54.15;101671.91;6248371;28;20231;-66
2022/07/30 10:26:24;;;;;;;3.78;2.90;;;;;;;25.68;52.07;101660.22;6269376;28;22375;-67
2022/07/30 10:30:05;;;;;;;3.80;3.08;;;;;;;25.72;51.47;101661.47;6264563;28;20230;-66
2022/07/30 10:33:27;;;;;;;4.82;3.58;;;;;;;25.20;53.85;101664.31;6244272;28;20236;-66
2022/07/30 10:36:51;;;;;;;4.63;3.88;;;;;;;25.38;53.00;101662.59;6260789;28;20616;-65
2022/07/30 10:40:21;;;;;;;3.42;2.80;;;;;;;25.20;51.76;101667.88;6292190;28;20227;-67
2022/07/30 10:44:00;;;;;;;3.33;2.65;;;;;;;25.14;52.55;101665.97;6276311;28;20317;-67
2022/07/30 10:47:24;;;;;;;4.38;2.92;;;;;;;24.55;54.10;101681.56;6275764;28;21392;-66
2022/07/30 10:50:51;;;;;;;3.65;2.78;;;;;;;24.43;54.32;101667.53;6276757;28;20252;-65
2022/07/30 10:54:38;;;;;;;2.95;2.63;;;;;;;24.22;54.95;101681.44;6267704;28;20770;-66
2022/07/30 10:58:04;;;;;;;6.18;3.00;;;;;;;24.06;56.06;101681.81;6246054;28;20307;-66
2022/07/30 11:01:25;;;;;;;3.45;2.80;;;;;;;24.26;55.25;101679.97;6246338;28;20368;-66
2022/07/30 11:04:46;;;;;;;2.78;2.42;;;;;;;24.15;55.57;101688.00;6250000;28;20235;-66
2022/07/30 11:08:44;;;;;;;2.65;2.42;;;;;;;24.30;54.71;101680.44;6245213;28;20231;-65
2022/07/30 11:12:06;;;;;;;4.70;2.58;;;;;;;24.26;53.79;101677.22;6233162;28;20239;-66
2022/07/30 11:15:53;;;;;;;5.70;3.78;;;;;;;24.52;54.25;101676.47;6237385;28;20255;-66
2022/07/30 11:19:16;;;;;;;8.70;3.72;;;;;;;24.75;53.85;101682.50;6239543;28;20698;-65
2022/07/30 11:22:39;;;;;;;4.55;2.72;;;;;;;24.86;53.66;101675.53;6266571;28;20238;-67
2022/07/30 11:26:00;;;;;;;5.47;2.90;;;;;;;24.86;53.32;101681.88;6272830;28;20593;-65
2022/07/30 11:29:38;;;;;;;4.82;2.83;;;;;;;24.82;53.41;101682.50;6274163;28;20608;-66
2022/07/30 11:33:24;;;;;;;4.28;2.28;;;;;;;25.14;52.67;101674.25;6282764;28;20525;-66
2022/07/30 11:37:03;;;;;;;3.83;2.88;;;;;;;25.53;51.71;101670.69;6276949;28;20306;-67
2022/07/30 11:40:24;;;;;;;3.38;2.42;;;;;;;25.82;50.73;101661.06;6276733;28;20231;-67
2022/07/30 11:43:45;;;;;;;4.03;2.15;;;;;;;25.96;51.18;101669.09;6273756;28;20235;-67
2022/07/30 11:47:06;;;;;;;3.25;2.67;;;;;;;26.32;50.07;101660.25;6268665;28;20228;-68
2022/07/30 11:50:31;;;;;;;6.00;3.00;;;;;;;26.08;49.91;101655.44;6240737;28;20243;-67
2022/07/30 11:54:04;;;;;;;5.70;2.78;;;;;;;26.66;48.29;101650.69;6256046;28;20498;-68
2022/07/30 11:57:39;;;;;;;3.85;3.15;;;;;;;27.42;46.80;101657.81;6277656;28;20219;-67
2022/07/30 12:01:02;;;;;;;3.40;2.50;;;;;;;27.91;46.11;101651.34;6279919;28;20235;-67
2022/07/30 12:04:24;;;;;;;5.15;2.65;;;;;;;27.65;46.13;101655.22;6270144;28;20231;-68
2022/07/30 12:07:46;;;;;;;4.93;2.78;;;;;;;28.33;44.25;101652.31;6266228;28;20235;-68
2022/07/30 12:11:07;;;;;;;3.65;2.88;;;;;;;28.85;43.76;101657.13;6268067;28;20231;-69
2022/07/30 12:14:37;;;;;;;4.97;2.42;;;;;;;29.07;42.39;101655.50;6272380;28;20622;-68
2022/07/30 12:17:59;;;;;;;2.42;2.08;;;;;;;29.82;41.82;101645.41;6270548;28;20334;-67
2022/07/30 12:21:20;;;;;;;4.15;2.55;;;;;;;30.46;40.52;101649.84;6268266;28;20231;-67
2022/07/30 12:24:42;;;;;;;4.40;2.90;;;;;;;28.40;41.32;101640.06;6275149;28;20535;-68
2022/07/30 12:28:03;;;;;;;3.63;2.78;;;;;;;28.81;42.45;101652.31;6265775;28;20230;-68
2022/07/30 12:31:24;;;;;;;5.75;2.92;;;;;;;27.58;44.29;101648.03;6259437;28;20255;-67
2022/07/30 12:34:54;;;;;;;5.07;2.97;;;;;;;27.20;44.40;101645.44;6266985;28;21315;-68
2022/07/30 12:38:17;;;;;;;5.75;3.60;;;;;;;27.43;43.73;101637.31;6260020;28;20219;-67
2022/07/30 12:41:44;;;;;;;2.90;2.63;;;;;;;27.64;42.92;101644.38;6265933;28;20227;-68
2022/07/30 12:45:06;;;;;;;4.55;3.83;;;;;;;27.07;44.20;101630.81;6269804;28;20235;-68
2022/07/30 12:48:27;;;;;;;7.55;3.65;;;;;;;27.95;42.62;101635.94;6269794;28;20243;-68
2022/07/30 12:51:52;;;;;;;3.78;3.40;;;;;;;27.66;43.64;101629.19;6263992;28;20238;-68
2022/07/30 12:55:13;;;;;;;6.40;4.15;;;;;;;27.99;43.03;101634.41;6232589;28;20553;-69
2022/07/30 12:58:37;;;;;;;3.42;3.13;;;;;;;28.24;42.96;101635.16;6214161;28;23130;-68
2022/07/30 13:01:59;;;;;;;4.65;3.85;;;;;;;28.18;42.73;101632.47;6215783;28;20231;-67
2022/07/30 13:05:21;;;;;;;6.90;4.50;;;;;;;28.96;42.12;101631.31;6194181;28;20685;-68
2022/07/30 13:08:47;;;;;;;3.65;3.35;;;;;;;28.94;41.69;101632.63;6199586;28;20239;-67
2022/07/30 13:12:12;;;;;;;6.15;4.18;;;;;;;28.84;42.16;101621.28;6226496;28;20239;-68
2022/07/30 13:15:34;;;;;;;5.32;3.35;;;;;;;29.17;42.22;101618.81;6223228;28;20235;-68
2022/07/30 13:18:56;;;;;;;7.38;4.20;;;;;;;30.19;39.36;101615.31;6198381;28;20231;-67
2022/07/30 13:22:17;;;;;;;4.50;3.42;;;;;;;29.81;41.15;101607.56;6225350;28;20257;-67
2022/07/30 13:25:38;;;;;;;6.25;4.80;;;;;;;29.85;40.29;101608.75;6254429;28;20219;-68
2022/07/30 13:28:59;;;;;;;6.75;3.20;;;;;;;33.71;34.19;101602.53;6242016;28;20227;-68
2022/07/30 13:32:21;;;;;;;3.50;3.13;;;;;;;33.71;32.98;101608.13;6244940;28;20236;-68
2022/07/30 13:35:42;;;;;;;4.40;3.05;;;;;;;33.54;33.87;101601.88;6263560;28;20258;-67
2022/07/30 13:39:03;;;;;;;5.43;3.47;;;;;;;34.45;32.42;101594.72;6243625;28;20231;-67
2022/07/30 13:42:24;;;;;;;4.53;3.28;;;;;;;35.84;31.22;101597.78;6235293;28;20251;-67
2022/07/30 13:45:45;;;;;;;3.38;3.08;;;;;;;36.94;29.86;101594.69;6221620;28;20256;-66
2022/07/30 13:49:08;;;;;;;3.25;2.92;;;;;;;35.92;29.88;101587.94;6249208;28;20252;-67
2022/07/30 13:52:29;;;;;;;3.83;2.95;;;;;;;34.18;32.11;101591.28;6250757;28;20319;-66
2022/07/30 13:55:50;;;;;;;8.98;4.38;;;;;;;32.17;34.99;101591.34;6275248;28;20954;-65
2022/07/30 13:59:11;;;;;;;3.35;2.88;;;;;;;31.14;36.26;101584.81;6269827;28;20231;-67
2022/07/30 14:02:32;;;;;;;4.97;3.15;;;;;;;32.57;35.63;101581.72;6279136;28;20247;-66
2022/07/30 14:05:54;;;;;;;4.47;2.95;;;;;;;33.12;34.82;101587.00;6275217;28;20636;-66
2022/07/30 14:09:15;;;;;;;4.43;3.53;;;;;;;32.47;36.02;101582.50;6275946;28;20438;-66
2022/07/30 14:12:38;;;;;;;3.80;3.50;;;;;;;32.52;35.96;101578.91;6281609;28;20230;-66
2022/07/30 14:15:59;;;;;;;4.38;3.75;;;;;;;32.62;35.93;101577.06;6273783;28;20219;-66
2022/07/30 14:19:20;;;;;;;5.68;4.72;;;;;;;32.15;35.59;101590.75;6281254;28;20917;-66
2022/07/30 14:22:43;;;;;;;11.13;10.05;;;;;;;31.85;37.79;101572.78;6275869;28;20837;-67
2022/07/30 14:26:03;;;;;;;4.05;3.65;;;;;;;31.60;36.68;101581.66;6282542;28;20939;-66
2022/07/30 14:29:25;;;;;;;5.18;3.05;;;;;;;29.66;39.92;101575.78;6282494;28;20673;-66
2022/07/30 14:32:46;;;;;;;5.82;4.15;;;;;;;30.76;38.47;101575.25;6282554;28;20242;-67
2022/07/30 14:36:07;;;;;;;3.90;3.08;;;;;;;31.00;38.40;101569.56;6266423;28;20223;-66
2022/07/30 14:39:29;;;;;;;5.90;3.72;;;;;;;30.54;39.05;101577.06;6279701;28;20550;-67
2022/07/30 14:42:50;;;;;;;5.57;3.58;;;;;;;30.25;39.87;101575.38;6278342;28;20624;-67
2022/07/30 14:46:11;;;;;;;4.38;3.20;;;;;;;30.45;39.30;101574.97;6277877;28;20637;-66
2022/07/30 14:49:32;;;;;;;6.97;4.18;;;;;;;30.39;39.19;101573.19;6286141;28;20228;-66
2022/07/30 14:52:53;;;;;;;3.88;2.90;;;;;;;30.31;38.03;101562.44;6269375;28;20323;-67
2022/07/30 14:56:16;;;;;;;5.22;3.97;;;;;;;30.58;39.50;101572.69;6279238;28;20223;-66
2022/07/30 14:59:36;;;;;;;6.22;3.30;;;;;;;30.79;38.17;101573.91;6285599;28;20247;-67
2022/07/30 15:02:57;;;;;;;3.80;3.40;;;;;;;29.23;40.65;101578.13;6283530;28;20223;-67
2022/07/30 15:06:18;;;;;;;6.78;3.63;;;;;;;29.16;42.25;101581.03;6272435;28;20234;-66
2022/07/30 15:09:39;;;;;;;6.85;4.18;;;;;;;28.87;43.29;101585.53;6256174;28;20236;-67
2022/07/30 15:13:02;;;;;;;3.22;2.92;;;;;;;28.69;43.26;101587.56;6270868;28;20232;-67
2022/07/30 15:16:23;;;;;;;3.38;2.90;;;;;;;28.57;44.77;101587.53;6283942;28;20675;-66
2022/07/30 15:19:44;;;;;;;3.65;3.03;;;;;;;28.26;44.33;101585.84;6270997;28;20496;-66
2022/07/30 15:23:05;;;;;;;4.20;2.90;;;;;;;28.07;44.38;101583.31;6281468;28;20670;-66
2022/07/30 15:26:26;;;;;;;5.43;3.83;;;;;;;28.01;45.46;101584.25;6263589;28;20231;-67
2022/07/30 15:29:48;;;;;;;4.57;4.10;;;;;;;28.18;44.59;101579.78;6251937;28;20244;-68
2022/07/30 15:33:09;;;;;;;5.75;2.85;;;;;;;28.01;43.81;101589.81;6256730;28;20236;-67
2022/07/30 15:36:30;;;;;;;3.88;2.65;;;;;;;27.86;43.92;101586.56;6254302;28;20227;-66
2022/07/30 15:39:51;;;;;;;3.65;3.22;;;;;;;27.72;44.26;101596.97;6265427;28;20236;-67
2022/07/30 15:43:12;;;;;;;4.20;2.88;;;;;;;27.88;43.84;101596.34;6265241;28;20519;-67
2022/07/30 15:46:35;;;;;;;5.03;2.97;;;;;;;28.51;43.12;101590.38;6271426;28;20223;-67
2022/07/30 15:49:56;;;;;;;5.07;3.17;;;;;;;28.39;43.07;101587.56;6281448;28;20223;-67
2022/07/30 15:53:18;;;;;;;5.55;3.53;;;;;;;28.80;42.02;101595.06;6281748;28;20226;-67
2022/07/30 15:56:38;;;;;;;6.97;3.15;;;;;;;28.73;41.88;101592.41;6269289;28;20542;-66